Time;durP1;ratioP1;P1;durP2;ratioP2;P2;SDS_P1;SDS_P2;PMS_P1;PMS_P2;Temp;Humidity;BMP_temperature;BMP_pressure;BME280_temperature;BME280_humidity;BME280_pressure;Samples;Min_cycle;Max_cycle;Signal;HPM_P1;HPM_P2
2022/09/14 00:01:30;;;;;;;10.50;4.22;;;;;;;18.64;100.00;99861.31;4999265;28;20395;-82
2022/09/14 00:04:05;;;;;;;11.35;4.30;;;;;;;18.50;100.00;99849.56;5013256;28;20072;-81
2022/09/14 00:06:31;;;;;;;7.32;4.38;;;;;;;18.60;100.00;99860.84;5013143;28;20376;-83
2022/09/14 00:08:59;;;;;;;12.52;4.68;;;;;;;18.79;100.00;99854.34;5013115;28;20095;-83
2022/09/14 00:11:27;;;;;;;7.95;4.28;;;;;;;18.66;100.00;99856.69;5013304;28;20026;-83
2022/09/14 00:13:52;;;;;;;9.63;4.90;;;;;;;18.91;100.00;99854.78;5013004;28;20026;-83
2022/09/14 00:16:29;;;;;;;8.88;4.88;;;;;;;18.97;100.00;99851.44;5004584;28;20080;-83
2022/09/14 00:18:59;;;;;;;10.57;5.20;;;;;;;18.81;100.00;99840.88;4993505;28;20114;-83
2022/09/14 00:21:25;;;;;;;6.97;4.65;;;;;;;18.81;100.00;99840.88;4993686;28;20366;-83
2022/09/14 00:23:51;;;;;;;9.75;4.88;;;;;;;18.82;100.00;99834.56;4993344;28;20030;-83
2022/09/14 00:26:19;;;;;;;7.80;5.30;;;;;;;18.74;100.00;99834.53;4993237;28;20110;-83
2022/09/14 00:28:47;;;;;;;7.45;4.82;;;;;;;18.83;100.00;99829.06;4992937;28;20030;-83
2022/09/14 00:31:14;;;;;;;11.70;5.40;;;;;;;18.81;100.00;99820.41;4991871;28;20037;-83
2022/09/14 00:33:44;;;;;;;7.90;4.65;;;;;;;18.95;100.00;99826.84;4991635;28;20384;-83
2022/09/14 00:36:12;;;;;;;9.07;5.28;;;;;;;18.68;100.00;99824.59;4992395;28;20404;-83
2022/09/14 00:38:38;;;;;;;8.98;5.18;;;;;;;18.68;100.00;99821.94;4992765;28;20427;-83
2022/09/14 00:41:05;;;;;;;11.35;5.65;;;;;;;18.76;100.00;99821.91;4992913;28;20084;-83
2022/09/14 00:43:31;;;;;;;7.85;5.43;;;;;;;18.55;100.00;99815.31;4992970;28;20035;-83
2022/09/14 00:46:00;;;;;;;8.30;4.93;;;;;;;18.78;100.00;99799.47;4992437;28;20031;-83
2022/09/14 00:48:26;;;;;;;6.82;4.78;;;;;;;18.73;100.00;99804.47;4992686;28;20032;-82
2022/09/14 00:50:52;;;;;;;7.47;5.47;;;;;;;18.53;100.00;99798.72;4992796;28;20030;-81
2022/09/14 00:53:18;;;;;;;9.00;5.93;;;;;;;18.85;100.00;99804.94;4992684;28;20484;-81
2022/09/14 00:55:43;;;;;;;;;;;;;;;18.76;100.00;99798.81;4992865;28;20030;-81
2022/09/14 00:58:09;;;;;;;;;;;;;;;18.71;100.00;99800.31;4992925;28;19936;-81
2022/09/14 01:00:34;;;;;;;;;;;;;;;18.49;100.00;99793.91;4992984;28;19918;-81
2022/09/14 01:03:00;;;;;;;;;;;;;;;18.58;100.00;99791.06;4993052;28;19918;-81
2022/09/14 01:05:44;;;;;;;;;;;;;;;18.74;100.00;99792.00;4993167;28;19913;-81
2022/09/14 01:08:32;;;;;;;;;;;;;;;18.80;100.00;99796.69;4992889;28;19921;-82
2022/09/14 01:11:16;;;;;;;;;;;;;;;18.83;100.00;99791.81;4992764;28;19924;-81
2022/09/14 01:13:57;;;;;;;;;;;;;;;18.79;100.00;99779.88;4993024;28;20295;-82
2022/09/14 01:16:29;;;;;;;;;;;;;;;18.59;100.00;99779.41;4992430;28;19949;-81
2022/09/14 01:18:56;;;;;;;;;;;;;;;18.72;100.00;99783.34;4992763;28;20012;-81
2022/09/14 01:21:28;;;;;;;;;;;;;;;18.70;100.00;99775.56;4992838;28;19937;-81
2022/09/14 01:23:59;;;;;;;;;;;;;;;18.58;100.00;99776.94;4992853;28;19909;-81
2022/09/14 01:26:36;;;;;;;;;;;;;;;18.74;100.00;99776.88;4992796;28;19996;-81
2022/09/14 01:29:04;;;;;;;;;;;;;;;18.78;100.00;99780.84;4992746;28;19909;-81
2022/09/14 01:31:33;;;;;;;;;;;;;;;18.53;100.00;99776.63;4992455;28;19921;-81
2022/09/14 01:34:17;;;;;;;;;;;;;;;18.72;100.00;99778.03;4992915;28;19910;-81
2022/09/14 01:36:46;;;;;;;;;;;;;;;18.72;100.00;99773.56;4992824;28;20428;-81
2022/09/14 01:39:13;;;;;;;;;;;;;;;18.67;100.00;99772.41;4992492;28;19917;-81
2022/09/14 01:41:41;;;;;;;;;;;;;;;18.83;100.00;99781.19;4992696;28;19918;-81
2022/09/14 01:44:15;;;;;;;;;;;;;;;18.61;100.00;99782.72;4995940;28;19964;-81
2022/09/14 01:46:43;;;;;;;;;;;;;;;18.88;100.00;99782.47;4996058;28;20380;-81
2022/09/14 01:49:14;;;;;;;;;;;;;;;18.90;100.00;99778.66;4996429;28;20368;-81
2022/09/14 01:51:44;;;;;;;;;;;;;;;18.78;100.00;99772.06;4996571;28;19914;-81
2022/09/14 01:54:12;;;;;;;;;;;;;;;18.87;100.00;99771.03;4996642;28;20008;-81
2022/09/14 01:56:40;;;;;;;;;;;;;;;18.80;100.00;99770.91;4996353;28;19913;-81
2022/09/14 01:59:35;;;;;;;;;;;;;;;18.88;100.00;99767.38;4996347;28;19920;-81
2022/09/14 02:02:03;;;;;;;;;;;;;;;19.11;100.00;99761.25;5006794;28;19932;-81
2022/09/14 02:04:34;;;;;;;;;;;;;;;19.06;100.00;99758.31;5015913;28;19918;-81
2022/09/14 02:06:59;;;;;;;;;;;;;;;18.83;100.00;99753.75;5015853;28;20008;-81
2022/09/14 02:09:25;;;;;;;;;;;;;;;18.98;100.00;99760.00;5015741;28;20016;-81
2022/09/14 02:11:51;;;;;;;;;;;;;;;18.99;100.00;99758.16;5015786;28;19948;-81
2022/09/14 02:14:16;;;;;;;;;;;;;;;19.00;100.00;99754.50;5015631;28;19956;-81
2022/09/14 02:16:44;;;;;;;;;;;;;;;18.98;100.00;99759.19;4998169;28;19913;-81
2022/09/14 02:19:10;;;;;;;;;;;;;;;18.73;100.00;99758.44;5015493;28;19917;-81
2022/09/14 02:21:37;;;;;;;;;;;;;;;18.86;100.00;99749.91;4997075;28;19914;-81
2022/09/14 02:24:02;;;;;;;;;;;;;;;19.06;100.00;99753.00;4995974;28;19924;-81
2022/09/14 02:26:28;;;;;;;;;;;;;;;18.82;100.00;99760.09;4995812;28;19997;-82
2022/09/14 02:28:54;;;;;;;;;;;;;;;18.97;100.00;99757.50;4996024;28;20026;-81
2022/09/14 02:31:20;;;;;;;;;;;;;;;18.96;100.00;99748.72;4995804;28;19921;-81
2022/09/14 02:33:57;;;;;;;;;;;;;;;18.96;100.00;99739.91;4995747;28;19913;-81
2022/09/14 02:36:27;;;;;;;;;;;;;;;18.85;100.00;99734.97;4995160;28;19914;-81
2022/09/14 02:38:57;;;;;;;;;;;;;;;18.92;100.00;99742.09;4995282;28;19917;-81
2022/09/14 02:41:52;;;;;;;;;;;;;;;18.99;100.00;99735.03;4995664;28;19913;-81
2022/09/14 02:44:26;;;;;;;;;;;;;;;18.71;100.00;99728.53;4990162;28;20360;-81
2022/09/14 02:46:51;;;;;;;;;;;;;;;18.86;100.00;99733.94;4995615;28;20009;-82
2022/09/14 02:49:25;;;;;;;;;;;;;;;18.88;100.00;99732.81;4995536;28;20004;-81
2022/09/14 02:52:09;;;;;;;;;;;;;;;18.92;100.00;99738.59;4995378;28;19913;-81
2022/09/14 02:54:39;;;;;;;;;;;;;;;18.70;100.00;99735.69;4994817;28;19952;-81
2022/09/14 02:57:05;;;;;;;;;;;;;;;18.78;100.00;99738.31;4995502;28;19957;-81
2022/09/14 02:59:30;;;;;;;;;;;;;;;18.78;100.00;99729.50;4994752;28;19956;-81
2022/09/14 03:01:57;;;;;;;;;;;;;;;18.96;100.00;99727.44;4995208;28;19944;-81
2022/09/14 03:04:22;;;;;;;;;;;;;;;18.98;100.00;99722.75;4995047;28;19921;-81
2022/09/14 03:06:48;;;;;;;;;;;;;;;18.89;100.00;99722.97;4995247;28;20323;-81
2022/09/14 03:09:13;;;;;;;;;;;;;;;18.67;100.00;99732.53;4995124;28;19913;-81
2022/09/14 03:11:38;;;;;;;10.60;6.07;;;;;;;18.85;100.00;99724.34;4994597;28;20301;-81
2022/09/14 03:14:03;;;;;;;9.15;6.05;;;;;;;18.85;100.00;99722.50;4997297;28;20369;-81
2022/09/14 03:16:29;;;;;;;;;;;;;;;18.88;100.00;99724.81;5014485;28;20045;-81
2022/09/14 03:18:54;;;;;;;;;;;;;;;18.82;100.00;99722.88;5014437;28;20079;-81
2022/09/14 03:21:19;;;;;;;;;;;;;;;18.94;100.00;99726.78;5014545;28;19914;-81
2022/09/14 03:23:46;;;;;;;;;;;;;;;18.92;100.00;99722.66;5014498;28;19913;-81
2022/09/14 03:26:15;;;;;;;;;;;;;;;18.97;100.00;99722.94;5014382;28;19993;-82
2022/09/14 03:28:40;;;;;;;;;;;;;;;19.12;100.00;99720.34;5011457;28;19937;-81
2022/09/14 03:31:06;;;;;;;;;;;;;;;19.05;100.00;99720.22;4994901;28;20323;-81
2022/09/14 03:33:32;;;;;;;;;;;;;;;19.13;100.00;99722.81;4994713;28;20378;-81
2022/09/14 03:35:58;;;;;;;;;;;;;;;19.03;100.00;99725.69;4994624;28;20284;-81
2022/09/14 03:38:26;;;;;;;;;;;;;;;19.01;100.00;99722.38;4994483;28;19963;-81
2022/09/14 03:40:52;;;;;;;;;;;;;;;18.81;100.00;99723.84;4994455;28;19913;-81
2022/09/14 03:43:17;;;;;;;;;;;;;;;18.76;100.00;99727.00;4994790;28;20260;-82
2022/09/14 03:45:42;;;;;;;;;;;;;;;18.88;100.00;99731.94;5013892;28;19921;-82
2022/09/14 03:48:07;;;;;;;;;;;;;;;19.05;100.00;99730.03;5013040;28;19963;-81
2022/09/14 03:50:33;;;;;;;;;;;;;;;19.04;100.00;99729.22;5014139;28;19913;-81
2022/09/14 03:52:58;;;;;;;;;;;;;;;19.02;100.00;99731.22;5013810;28;19917;-81
2022/09/14 03:55:24;;;;;;;;;;;;;;;18.81;100.00;99727.31;5013891;28;20049;-81
2022/09/14 03:57:52;;;;;;;;;;;;;;;18.96;100.00;99727.44;5013610;28;20389;-81
2022/09/14 04:00:17;;;;;;;;;;;;;;;18.80;100.00;99730.19;4998555;28;19917;-81
2022/09/14 04:02:42;;;;;;;;;;;;;;;18.85;100.00;99725.16;4994236;28;19914;-81
2022/09/14 04:05:07;;;;;;;;;;;;;;;18.89;100.00;99725.63;4994089;28;20025;-81
2022/09/14 04:07:33;;;;;;;;;;;;;;;18.82;100.00;99718.38;4993042;28;19964;-82
2022/09/14 04:09:58;;;;;;;;;;;;;;;18.94;100.00;99723.28;4997069;28;20331;-81
2022/09/14 04:12:23;;;;;;;;;;;;;;;19.00;100.00;99718.09;4993528;28;20300;-81
2022/09/14 04:14:48;;;;;;;;;;;;;;;18.90;100.00;99714.84;4993281;28;19917;-81
2022/09/14 04:17:14;;;;;;;;;;;;;;;18.95;100.00;99715.13;4993435;28;19921;-81
2022/09/14 04:19:40;;;;;;;;;;;;;;;18.79;100.00;99715.19;4993727;28;19921;-81
2022/09/14 04:22:05;;;;;;;;;;;;;;;18.85;100.00;99727.00;4993650;28;20422;-81
2022/09/14 04:24:30;;;;;;;;;;;;;;;18.66;100.00;99720.22;4993513;28;19914;-81
2022/09/14 04:26:56;;;;;;;;;;;;;;;18.80;100.00;99727.53;4993739;28;20283;-81
2022/09/14 04:29:21;;;;;;;;;;;;;;;18.59;100.00;99714.78;4993701;28;19913;-81
2022/09/14 04:31:46;;;;;;;;;;;;;;;18.63;100.00;99724.91;4993122;28;19918;-81
2022/09/14 04:34:12;;;;;;;;;;;;;;;18.47;100.00;99717.00;4997681;28;19917;-81
2022/09/14 04:36:38;;;;;;;;;;;;;;;18.74;100.00;99714.88;5013114;28;19919;-81
2022/09/14 04:39:03;;;;;;;;;;;;;;;18.88;100.00;99711.53;5012856;28;19917;-81
2022/09/14 04:41:29;;;;;;;;;;;;;;;18.82;100.00;99714.88;5013028;28;19913;-81
2022/09/14 04:43:54;;;;;;;;;;;;;;;18.93;100.00;99710.97;5013046;28;20375;-81
2022/09/14 04:46:21;;;;;;;;;;;;;;;18.93;100.00;99709.16;5013044;28;20354;-81
2022/09/14 04:48:47;;;;;;;;;;;;;;;18.93;100.00;99716.31;4997325;28;19918;-83
2022/09/14 04:51:15;;;;;;;;;;;;;;;18.68;100.00;99727.06;4993403;28;19918;-81
2022/09/14 04:53:41;;;;;;;;;;;;;;;18.83;100.00;99716.53;4993172;28;19910;-81
2022/09/14 04:56:07;;;;;;;;;;;;;;;18.92;100.00;99714.66;4993196;28;19921;-81
2022/09/14 04:58:34;;;;;;;;;;;;;;;18.82;100.00;99710.38;4993165;28;19960;-81
2022/09/14 05:01:00;;;;;;;;;;;;;;;18.91;100.00;99713.00;4993243;28;19924;-83
2022/09/14 05:03:25;;;;;;;;;;;;;;;18.81;100.00;99718.53;5005965;28;20012;-82
2022/09/14 05:05:50;;;;;;;;;;;;;;;18.97;100.00;99717.59;5012743;28;19914;-83
2022/09/14 05:08:16;;;;;;;;;;;;;;;18.81;100.00;99715.88;5012635;28;19921;-81
2022/09/14 05:10:41;;;;;;;;;;;;;;;18.87;100.00;99717.81;5012680;28;19920;-81
2022/09/14 05:13:06;;;;;;;;;;;;;;;18.91;100.00;99719.13;5012533;28;20010;-83
2022/09/14 05:15:32;;;;;;;;;;;;;;;18.90;100.00;99719.31;5012709;28;19960;-81
2022/09/14 05:17:57;;;;;;;;;;;;;;;18.92;100.00;99718.16;4999176;28;19918;-83
2022/09/14 05:20:22;;;;;;;;;;;;;;;18.73;100.00;99716.72;4992878;28;19914;-82
2022/09/14 05:22:48;;;;;;;;;;;;;;;18.54;100.00;99723.28;4992863;28;19914;-81
2022/09/14 05:25:13;;;;;;;;;;;;;;;18.59;100.00;99728.91;4992901;28;20253;-81
2022/09/14 05:27:38;;;;;;;;;;;;;;;18.72;100.00;99724.84;4992786;28;19914;-81
2022/09/14 05:30:04;;;;;;;;;;;;;;;18.74;100.00;99720.19;4992743;28;19909;-81
2022/09/14 05:32:29;;;;;;;;;;;;;;;18.76;100.00;99718.19;4992286;28;19984;-81
2022/09/14 05:34:54;;;;;;;;;;;;;;;18.82;100.00;99714.88;4992755;28;19921;-82
2022/09/14 05:37:20;;;;;;;;;;;;;;;18.73;100.00;99722.03;4992678;28;19918;-81
2022/09/14 05:39:45;;;;;;;;;;;;;;;18.65;100.00;99726.56;4992845;28;19953;-81
2022/09/14 05:42:10;;;;;;;;;;;;;;;18.65;100.00;99729.22;4992784;28;19945;-82
2022/09/14 05:44:35;;;;;;;;;;;;;;;18.69;100.00;99720.72;4992792;28;20008;-81
2022/09/14 05:47:00;;;;;;;;;;;;;;;18.72;100.00;99730.16;4992102;28;20008;-81
2022/09/14 05:49:25;;;;;;;;;;;;;;;18.68;100.00;99734.19;4992593;28;20330;-81
2022/09/14 05:51:51;;;;;;;;;;;;;;;18.63;100.00;99727.56;4992694;28;20004;-81
2022/09/14 05:54:16;;;;;;;;;;;;;;;18.58;100.00;99723.75;4992665;28;20400;-81
2022/09/14 05:56:41;;;;;;;;;;;;;;;18.55;100.00;99722.28;4992363;28;20363;-82
2022/09/14 05:59:06;;;;;;;;;;;;;;;18.58;100.00;99727.25;4992563;28;20427;-82
2022/09/14 06:01:32;;;;;;;;;;;;;;;18.56;100.00;99729.25;4998289;28;19918;-81
2022/09/14 06:04:02;;;;;;;;;;;;;;;18.52;100.00;99725.28;5012070;28;19944;-82
2022/09/14 06:06:28;;;;;;;;;;;;;;;18.51;100.00;99728.13;5012135;28;19921;-82
2022/09/14 06:08:55;;;;;;;;;;;;;;;18.57;100.00;99730.91;5012025;28;19913;-82
2022/09/14 06:11:21;;;;;;;;;;;;;;;18.52;100.00;99740.41;5011558;28;19920;-82
2022/09/14 06:13:46;;;;;;;;;;;;;;;18.67;100.00;99735.19;5009779;28;19917;-81
2022/09/14 06:16:16;;;;;;;;;;;;;;;18.57;100.00;99733.56;5005150;28;19943;-82
2022/09/14 06:18:42;;;;;;;;;;;;;;;18.53;100.00;99732.25;4992045;28;19924;-82
2022/09/14 06:21:08;;;;;;;;;;;;;;;18.65;100.00;99726.56;4992130;28;19960;-83
2022/09/14 06:23:33;;;;;;;;;;;;;;;18.69;100.00;99728.69;5010737;28;20366;-84
2022/09/14 06:26:00;;;;;;;;;;;;;;;18.78;100.00;99729.50;5020507;28;19967;-82
2022/09/14 06:28:26;;;;;;;;;;;;;;;18.75;100.00;99721.84;5010870;28;19914;-82
2022/09/14 06:30:51;;;;;;;;;;;;;;;18.59;100.00;99730.75;5014286;28;20417;-82
2022/09/14 06:33:17;;;;;;;;;;;;;;;18.63;100.00;99735.53;5025267;28;19917;-83
2022/09/14 06:35:45;;;;;;;;;;;;;;;18.90;100.00;99738.78;5003262;28;20019;-82
2022/09/14 06:38:11;;;;;;;;;;;;;;;18.95;100.00;99731.06;5014890;28;20008;-81
2022/09/14 06:40:36;;;;;;;;;;;;;;;18.98;100.00;99730.75;5012843;28;20340;-82
2022/09/14 06:43:01;;;;;;;;;;;;;;;19.12;100.00;99723.84;5014258;28;19920;-84
2022/09/14 06:45:31;;;;;;;;;;;;;;;19.01;100.00;99730.38;5010511;28;20363;-82
2022/09/14 06:47:56;;;;;;;;;;;;;;;19.38;100.00;99728.81;5015025;28;19920;-82
2022/09/14 06:50:22;;;;;;;;;;;;;;;19.67;99.71;99734.38;5013613;28;20291;-82
2022/09/14 06:52:47;;;;;;;;;;;;;;;19.16;99.51;99733.13;5007754;28;19932;-82
2022/09/14 06:55:12;;;;;;;;;;;;;;;19.58;97.85;99739.78;5000748;28;19928;-82
2022/09/14 06:57:37;;;;;;;;;;;;;;;19.98;97.05;99735.16;4994464;28;19913;-83
2022/09/14 07:00:03;;;;;;;;;;;;;;;20.27;95.85;99740.69;4995280;28;19914;-83
2022/09/14 07:02:29;;;;;;;;;;;;;;;20.56;95.04;99732.66;5005018;28;19920;-82
2022/09/14 07:04:54;;;;;;;;;;;;;;;20.42;95.96;99738.84;5014541;28;20000;-83
2022/09/14 07:07:19;;;;;;;;;;;;;;;20.91;93.51;99732.94;5014858;28;20000;-82
2022/09/14 07:09:44;;;;;;;;;;;;;;;21.08;92.12;99738.84;5002126;28;19957;-83
2022/09/14 07:12:10;;;;;;;;;;;;;;;21.16;92.54;99735.22;5001333;28;19952;-83
2022/09/14 07:14:37;;;;;;;;;;;;;;;21.08;91.60;99743.38;5015013;28;20382;-82
2022/09/14 07:17:02;;;;;;;;;;;;;;;21.27;91.44;99742.75;5014548;28;20351;-82
2022/09/14 07:19:28;;;;;;;11.85;9.35;;;;;;;20.74;90.88;99736.81;5014036;28;20012;-82
2022/09/14 07:21:53;;;;;;;13.90;9.85;;;;;;;21.23;90.41;99741.47;5013910;28;20013;-82
2022/09/14 07:24:19;;;;;;;12.30;8.60;;;;;;;21.15;90.52;99734.41;5002799;28;20030;-82
2022/09/14 07:26:45;;;;;;;13.40;8.82;;;;;;;20.90;90.54;99735.78;4993865;28;20022;-82
2022/09/14 07:29:14;;;;;;;;;;;;;;;20.50;92.42;99741.41;4994356;28;20022;-82
2022/09/14 07:31:51;;;;;;;12.77;10.48;;;;;;;20.39;91.56;99739.22;4997450;28;19944;-82
2022/09/14 07:34:17;;;;;;;16.48;12.32;;;;;;;20.38;91.46;99748.22;5013614;28;20495;-82
2022/09/14 07:36:43;;;;;;;;;;;;;;;20.09;93.09;99749.84;5014230;28;20055;-82
2022/09/14 07:39:11;;;;;;;14.55;13.02;;;;;;;20.32;93.86;99751.59;5001118;28;20347;-83
2022/09/14 07:41:37;;;;;;;16.97;12.40;;;;;;;20.38;92.47;99751.72;4993555;28;20038;-83
2022/09/14 07:44:03;;;;;;;;;;;;;;;20.56;90.18;99751.34;4993858;28;19910;-83
2022/09/14 07:46:31;;;;;;;;;;;;;;;21.47;88.50;99744.81;4993543;28;19929;-83
2022/09/14 07:48:58;;;;;;;;;;;;;;;22.03;87.63;99736.81;4994446;28;20004;-83
2022/09/14 07:51:23;;;;;;;;;;;;;;;23.96;78.32;99747.38;4994621;28;20003;-83
2022/09/14 07:53:49;;;;;;;;;;;;;;;23.69;73.63;99744.66;5003708;28;19969;-83
2022/09/14 07:56:15;;;;;;;;;;;;;;;25.08;71.88;99744.53;5013776;28;20355;-83
2022/09/14 07:58:41;;;;;;;;;;;;;;;26.79;60.83;99745.13;5013726;28;19936;-83
2022/09/14 08:01:07;;;;;;;;;;;;;;;28.45;55.31;99744.34;5013837;28;20012;-83
2022/09/14 08:03:35;;;;;;;;;;;;;;;31.73;47.33;99742.91;5013708;28;19924;-83
2022/09/14 08:06:11;;;;;;;;;;;;;;;33.89;38.55;99741.72;5014192;28;19984;-84
2022/09/14 08:08:38;;;;;;;;;;;;;;;30.22;44.32;99746.16;5002195;28;19925;-84
2022/09/14 08:11:04;;;;;;;;;;;;;;;27.84;51.41;99751.06;4993784;28;19997;-84
2022/09/14 08:13:29;;;;;;;;;;;;;;;26.86;52.11;99755.84;4994179;28;19986;-83
2022/09/14 08:15:59;;;;;;;;;;;;;;;26.43;52.53;99756.72;4993996;28;19949;-83
2022/09/14 08:18:24;;;;;;;;;;;;;;;27.05;52.75;99753.91;4994070;28;19968;-83
2022/09/14 08:20:49;;;;;;;;;;;;;;;28.06;51.41;99744.06;4993064;28;19917;-83
2022/09/14 08:23:14;;;;;;;;;;;;;;;29.00;47.71;99742.22;4993978;28;19961;-83
2022/09/14 08:25:39;;;;;;;;;;;;;;;33.47;40.07;99747.44;4993649;28;19921;-83
2022/09/14 08:28:05;;;;;;;;;;;;;;;33.50;38.60;99752.34;4993755;28;19937;-83
2022/09/14 08:30:31;;;;;;;;;;;;;;;31.69;41.19;99751.84;4993643;28;19968;-83
2022/09/14 08:32:56;;;;;;;;;;;;;;;30.12;44.23;99756.03;4993918;28;19913;-83
2022/09/14 08:35:22;;;;;;;;;;;;;;;28.93;45.05;99760.47;5008206;28;20327;-83
2022/09/14 08:37:47;;;;;;;;;;;;;;;28.34;46.76;99752.47;5012940;28;20375;-83
2022/09/14 08:40:12;;;;;;;;;;;;;;;27.86;47.32;99749.78;5012915;28;19920;-83
2022/09/14 08:42:38;;;;;;;;;;;;;;;27.77;49.79;99753.06;5012969;28;19913;-83
2022/09/14 08:45:04;;;;;;;;;;;;;;;33.91;38.21;99709.59;5013019;28;19920;-83
2022/09/14 08:47:37;;;;;;;;;;;;;;;36.44;34.08;99695.75;5011775;28;19913;-83
2022/09/14 08:50:05;;;;;;;;;;;;;;;37.24;33.55;99710.50;5005402;28;19917;-84
2022/09/14 08:52:33;;;;;;;;;;;;;;;35.40;34.46;99741.59;5012316;28;19928;-84
2022/09/14 08:54:59;;;;;;;;;;;;;;;31.09;39.15;99745.59;5013080;28;19921;-83
2022/09/14 08:57:42;;;;;;;;;;;;;;;32.56;37.89;99733.38;5005878;28;19923;-83
2022/09/14 09:00:12;;;;;;;;;;;;;;;28.51;43.54;99753.41;4993254;28;19914;-83
2022/09/14 09:02:37;;;;;;;;;;;;;;;26.36;49.97;99758.66;4993075;28;19914;-83
2022/09/14 09:05:14;;;;;;;;;;;;;;;27.10;49.58;99751.34;4993298;28;19936;-83
2022/09/14 09:07:49;;;;;;;;;;;;;;;27.19;50.44;99765.31;4993154;28;19976;-83
2022/09/14 09:10:15;;;;;;;;;;;;;;;27.94;47.98;99755.91;4992910;28;19913;-83
2022/09/14 09:12:49;;;;;;;;;;;;;;;29.44;43.99;99764.97;5005629;28;19917;-83
2022/09/14 09:15:22;;;;;;;;;;;;;;;28.40;48.05;99765.88;5012602;28;19960;-83
2022/09/14 09:17:51;;;;;;;;;;;;;;;29.99;43.93;99759.88;5012323;28;20318;-83
2022/09/14 09:20:22;;;;;;;;;;;;;;;30.41;42.39;99762.13;5012340;28;19949;-83
2022/09/14 09:22:50;;;;;;;;;;;;;;;36.47;33.93;99747.09;5012395;28;19913;-83
2022/09/14 09:25:23;;;;;;;;;;;;;;;35.89;32.54;99756.22;5011124;28;20290;-83
2022/09/14 09:28:09;;;;;;;;;;;;;;;33.68;35.68;99746.38;4994833;28;19972;-83
2022/09/14 09:30:34;;;;;;;;;;;;;;;37.81;29.30;99738.53;4992110;28;19949;-84
2022/09/14 09:33:00;;;;;;;;;;;;;;;40.45;27.36;99741.19;4991450;28;19957;-84
2022/09/14 09:35:25;;;;;;;;;;;;;;;37.32;29.73;99756.34;4992406;28;19956;-84
2022/09/14 09:37:50;;;;;;;;;;;;;;;38.02;30.10;99755.44;4992598;28;19918;-84
2022/09/14 09:40:18;;;;;;;;;;;;;;;41.68;25.31;99748.34;4992865;28;19921;-84
2022/09/14 09:43:13;;;;;;;;;;;;;;;41.90;25.00;99754.75;5009923;28;19917;-85
2022/09/14 09:45:49;;;;;;;;;;;;;;;36.11;31.08;99761.16;4999167;28;19967;-84
2022/09/14 09:48:16;;;;;;;;;;;;;;;39.88;27.31;99746.66;5012184;28;19921;-84
2022/09/14 09:50:58;;;;;;;;;;;;;;;40.19;27.26;99743.88;5011160;28;19936;-85
2022/09/14 09:53:23;;;;;;;;;;;;;;;36.90;30.31;99750.66;5010910;28;20299;-85
2022/09/14 09:55:49;;;;;;;;;;;;;;;35.47;31.96;99746.75;5007371;28;19918;-85
2022/09/14 09:58:33;;;;;;;;;;;;;;;32.89;34.32;99751.16;4992343;28;20395;-84
2022/09/14 10:00:59;;;;;;;;;;;;;;;34.37;33.96;99746.78;4992755;28;19913;-84
2022/09/14 10:03:27;;;;;;;;;;;;;;;34.15;33.24;99758.03;4993013;28;19960;-84
2022/09/14 10:06:03;;;;;;;;;;;;;;;31.89;37.17;99753.88;4996028;28;20051;-83
2022/09/14 10:08:33;;;;;;;;;;;;;;;32.13;36.03;99744.31;5005899;28;19917;-84
2022/09/14 10:11:00;;;;;;;;;;;;;;;32.59;36.46;99744.53;5012378;28;19976;-84
2022/09/14 10:13:36;;;;;;;;;;;;;;;31.00;38.69;99753.34;5016024;28;19917;-83
2022/09/14 10:16:14;;;;;;;;;;;;;;;31.21;38.46;99748.97;5015523;28;20371;-84
2022/09/14 10:18:58;;;;;;;;;;;;;;;35.09;33.48;99749.16;5015494;28;19913;-84
2022/09/14 10:21:24;;;;;;;;;;;;;;;38.29;29.87;99746.44;4997847;28;19925;-85
2022/09/14 10:24:04;;;;;;;;;;;;;;;37.99;29.46;99747.78;4996234;28;19918;-85
2022/09/14 10:26:36;;;;;;;;;;;;;;;40.47;27.05;99749.94;4997563;28;19917;-85
2022/09/14 10:29:18;;;;;;;;;;;;;;;40.67;26.16;99744.97;5013643;28;19923;-85
2022/09/14 10:31:45;;;;;;;;;;;;;;;40.20;26.70;99756.47;4997103;28;19980;-85
2022/09/14 10:34:16;;;;;;;;;;;;;;;40.53;26.70;99737.66;4995878;28;19914;-86
2022/09/14 10:36:46;;;;;;;;;;;;;;;41.22;25.17;99733.34;5012844;28;19917;-85
2022/09/14 10:39:13;;;;;;;;;;;;;;;41.55;25.74;99744.63;5005443;28;20004;-85
2022/09/14 10:41:42;;;;;;;;;;;;;;;42.05;25.28;99734.94;5006581;28;19925;-85
2022/09/14 10:44:26;;;;;;;;;;;;;;;40.12;25.24;99736.06;4995685;28;19914;-85
2022/09/14 10:47:10;;;;;;;;;;;;;;;40.98;26.34;99729.13;5013038;28;20367;-85
2022/09/14 10:49:58;;;;;;;;;;;;;;;39.68;26.74;99734.25;4995692;28;20404;-85
2022/09/14 10:52:30;;;;;;;;;;;;;;;36.25;30.58;99734.78;4989017;28;19936;-85
2022/09/14 10:55:01;;;;;;;;;;;;;;;36.60;31.22;99735.47;5014989;28;19936;-85
2022/09/14 10:57:45;;;;;;;;;;;;;;;37.03;29.54;99738.16;5011882;28;19925;-85
2022/09/14 11:00:20;;;;;;;;;;;;;;;35.26;31.67;99737.91;4995869;28;19913;-84
2022/09/14 11:02:47;;;;;;;;;;;;;;;38.21;28.53;99735.34;4996424;28;19929;-84
2022/09/14 11:05:31;;;;;;;;;;;;;;;38.39;28.49;99744.56;4994679;28;20160;-85
2022/09/14 11:07:56;;;;;;;;;;;;;;;36.48;31.12;99737.81;4995177;28;20379;-85
2022/09/14 11:10:21;;;;;;;;;;;;;;;34.65;33.14;99739.84;4995177;28;19914;-85
2022/09/14 11:13:05;;;;;;;;;;;;;;;33.72;35.06;99735.75;4998763;28;19917;-85
2022/09/14 11:15:36;;;;;;;;;;;;;;;31.08;39.48;99738.53;5014105;28;19914;-84
2022/09/14 11:18:04;;;;;;;;;;;;;;;30.66;40.19;99737.25;5008550;28;19917;-84
2022/09/14 11:20:47;;;;;;;;;;;;;;;31.99;39.17;99726.78;4997847;28;20012;-84
2022/09/14 11:23:32;;;;;;;;;;;;;;;34.10;34.24;99733.50;5010023;28;19924;-85
2022/09/14 11:26:02;;;;;;;;;;;;;;;36.06;32.48;99725.69;5006174;28;19917;-85
2022/09/14 11:28:40;;;;;;;;;;;;;;;35.46;34.46;99737.72;4994722;28;19923;-85
2022/09/14 11:31:09;;;;;;;;;;;;;;;32.85;36.12;99730.22;5010178;28;19918;-85
2022/09/14 11:33:42;;;;;;;;;;;;;;;31.89;38.01;99738.41;4994813;28;19917;-85
2022/09/14 11:36:36;;;;;;;;;;;;;;;32.00;38.95;99726.56;4993558;28;19933;-85
2022/09/14 11:39:05;;;;;;;;;;;;;;;34.14;35.95;99738.16;4988976;28;19917;-84
2022/09/14 11:41:40;;;;;;;;;;;;;;;35.59;35.28;99735.41;5014100;28;19917;-85
2022/09/14 11:44:06;;;;;;;;;;;;;;;34.85;35.04;99741.66;5012457;28;19917;-85
2022/09/14 11:46:39;;;;;;;;;;;;;;;33.41;36.49;99741.16;5012819;28;20364;-85
2022/09/14 11:49:14;;;;;;;;;;;;;;;32.70;38.19;99739.13;5009342;28;19918;-84
2022/09/14 11:51:47;;;;;;;;;;;;;;;34.27;34.88;99734.03;4998231;28;19918;-85
2022/09/14 11:54:15;;;;;;;;;;;;;;;35.12;34.46;99740.44;5013726;28;19917;-84
2022/09/14 11:56:42;;;;;;;;;;;;;;;35.22;34.83;99736.84;5010170;28;20045;-85
2022/09/14 11:59:27;;;;;;;;;;;;;;;31.86;38.06;99749.00;4995478;28;19924;-85
2022/09/14 12:01:52;;;;;;;;;;;;;;;31.58;39.48;99742.81;5013186;28;20402;-84
2022/09/14 12:04:17;;;;;;;;;;;;;;;31.97;39.99;99747.94;5013813;28;19913;-84
2022/09/14 12:06:47;;;;;;;;;;;;;;;34.04;35.56;99745.50;4994951;28;20419;-85
2022/09/14 12:09:12;;;;;;;;;;;;;;;32.29;37.54;99745.19;4993934;28;19923;-85
2022/09/14 12:11:38;;;;;;;;;;;;;;;33.33;37.85;99752.59;5011414;28;20426;-85
2022/09/14 12:14:21;;;;;;;;;;;;;;;33.33;36.18;99753.41;5003521;28;20366;-85
2022/09/14 12:17:05;;;;;;;;;;;;;;;33.33;37.12;99741.72;5010707;28;19972;-85
2022/09/14 12:19:30;;;;;;;;;;;;;;;33.70;36.75;99743.38;5000830;28;20336;-85
2022/09/14 12:22:16;;;;;;;;;;;;;;;33.12;38.71;99749.06;5010452;28;19959;-85
2022/09/14 12:24:41;;;;;;;;;;;;;;;31.48;39.74;99748.97;5013276;28;19914;-85
2022/09/14 12:27:14;;;;;;;;;;;;;;;30.92;40.66;99751.09;5011878;28;19919;-85
2022/09/14 12:29:39;;;;;;;;;;;;;;;30.95;40.76;99750.63;4995825;28;20468;-85
2022/09/14 12:32:23;;;;;;;;;;;;;;;31.84;40.26;99757.38;5013124;28;19913;-85
2022/09/14 12:35:08;;;;;;;;;;;;;;;30.47;41.35;99763.00;5012193;28;19921;-85
2022/09/14 12:37:33;;;;;;;;;;;;;;;30.90;40.79;99764.09;5012942;28;20353;-85
2022/09/14 12:40:22;;;;;;;;;;;;;;;30.08;41.77;99765.72;5008922;28;19952;-85
2022/09/14 12:42:47;;;;;;;;;;;;;;;31.38;40.20;99760.53;5003160;28;20330;-88